Weather


ICAO METAR
KAPA KAPA 192353Z 10003KT 10SM BKN140 28/M03 A3002 RMK AO2 SLP085 T02781028 10300 20278 56007
KASE KASE 192353Z 17014KT 10SM CLR 21/M01 A3022 RMK AO2 PK WND 18026/2330 SLP114 T02111011 10233 20206 55005
KBJC KBJC 192350Z 17004KT 10SM BKN080 BKN120 28/M02 A3001
KBKF KBKF 192358Z COR 28003KT 10SM FEW100 BKN140 BKN200 27/M03 A3001 RMK AO2A SLP082 T02731026 10303 20273 56007 COR 0007
KCFO KCFO 192250Z 27008KT 10 SM SCT100 BKN150 31/M04 A3002
KCOS KCOS 192354Z 24008KT 10SM FEW110 BKN150 27/M01 A3007 RMK AO2 SLP100 VIRGA W T02721006 10300 20267 55006
KCPR KCPR 192353Z AUTO 25030G39KT 10SM -RA CLR 19/04 A3000 RMK AO2 PK WND 25046/2311 SLP105 P0000 60000 T01890039 10294 20189 53026
KCYS KCYS 192353Z 23016G26KT 10SM BKN120 25/M01 A3005 RMK AO2 PK WND 25034/2337 SLP088 T02501011 10289 20244 53003
KDEN KDEN 192353Z 33003KT 10SM BKN140 BKN180 29/M02 A2998 RMK AO2 SLP070 T02941022 10322 20294 56006
KEGE KEGE 192356Z 28009G16KT 10SM OVC095 21/03 A3015 RMK AO2 PK WND 25031/2327 RAB31E41 SLP171 6//// T02110028 10256 20211 55004 PNO $
KFCS KFCS 192358Z AUTO 24012G19KT 10SM CLR 28/M03 A3002 RMK AO2 SLP114 T02791031 10310 20277 55002 $
KFMN KFMN 192353Z 20004KT 10SM CLR 28/M01 A3008 RMK AO2 SLP124 T02831006 10294 20244 56013
KFNL KFNL 192356Z AUTO 29004KT 10SM FEW110 27/04 A2997 RMK AO2 SLP088 T02720039 10322 20272 55002
KGCC KGCC 192353Z AUTO 16008KT 10SM FEW100 FEW120 29/00 A2978 RMK AO2 PK WND 22045/2327 SLP035 T02890000 10328 20289 56008
KGJT KGJT 192353Z 21007KT 10SM CLR 29/M01 A2995 RMK AO2 SLP071 T02891006 10311 20278 56013
KGUR KGUR 192358Z AUTO 19005KT 10SM BKN120 26/03 M RMK AO2 SLPNO T02600025 10328 20260 $
KPUB KPUB 192353Z 00000KT 8SM CLR 31/01 A2996 RMK AO2 SLP086 T03060006 10339 20294 56009
KRAP KRAP 192352Z 12004KT 10SM FU CLR 23/12 A2980 RMK AO2 SLP056 T02280117 10278 20206 56012
KRCA KRCA 192356Z AUTO 14007KT 10SM FEW230 25/12 A2979 RMK AO2 SLP076 T02470120 10279 20209 57012 FZRANO $

Surface Data
Click here.

This is a composite map contain the following analyses: radar summary (color filled areas), surface data plot (composite station model), frontal locations (in various bold lines) and pressure contours (in thin blue lines).